< < Back
Terminal Aerodrome Forecast


Current Version              Previous Versions:   1  2  3  4  5  6  7  8  9  

Terminal Aerodrome Forecast

785
FTUS42 KGSP 301126
TAFAVL
TAF
KAVL 301126Z 3012/3112 34016G27KT P6SM FEW022 BKN035
      TEMPO 3012/3014 OVC022
     FM301600 34017G30KT P6SM SCT035
     FM302300 34012KT P6SM FEW040
     FM310300 32007KT P6SM FEW250=

Latest METAR

682
SAUS70 KWBC 302000 RRF
MTRAVL
METAR KAVL 301954Z 33019G28KT 10SM SCT044 03/M08 A3019 RMK AO2 PK WND
33031/1858 SLP230 T00331083


USA.gov is the U.S. government's official web portal to all federal, state and local government web resources and services.